createdAt,value
2023-04-21T00:00:56.619Z,101779.56
2023-04-21T00:03:27.769Z,101783.88
2023-04-21T00:05:58.631Z,101779.56
2023-04-21T00:08:26.812Z,101783.78
2023-04-21T00:10:53.107Z,101785.53
2023-04-21T00:13:19.360Z,101776.97
2023-04-21T00:15:45.907Z,101777.88
2023-04-21T00:18:13.353Z,101774.44
2023-04-21T00:20:39.623Z,101775.19
2023-04-21T00:23:05.958Z,101773.44
2023-04-21T00:25:32.292Z,101779.47
2023-04-21T00:27:58.667Z,101771.56
2023-04-21T00:30:25.113Z,101769.84
2023-04-21T00:32:51.440Z,101769.00
2023-04-21T00:35:17.757Z,101768.13
2023-04-21T00:37:44.141Z,101769.75
2023-04-21T00:40:11.110Z,101764.78
2023-04-21T00:42:37.560Z,101771.63
2023-04-21T00:45:04.969Z,101769.00
2023-04-21T00:47:31.595Z,101763.03
2023-04-21T00:49:58.762Z,101761.34
2023-04-21T00:52:26.341Z,101760.44
2023-04-21T00:54:53.133Z,101762.19
2023-04-21T00:57:20.491Z,101756.16
2023-04-21T00:59:46.800Z,101755.22
2023-04-21T01:02:15.882Z,101753.47
2023-04-21T01:04:43.486Z,101751.69
2023-04-21T01:07:10.008Z,101749.09
2023-04-21T01:09:36.304Z,101748.25
2023-04-21T01:12:04.880Z,101747.38
2023-04-21T01:14:31.607Z,101749.84
2023-04-21T01:16:59.004Z,101755.84
2023-04-21T01:19:28.563Z,101754.06
2023-04-21T01:21:57.503Z,101752.34
2023-04-21T01:24:27.377Z,101746.28
2023-04-21T01:26:53.683Z,101747.22
2023-04-21T01:29:20.363Z,101748.84
2023-04-21T01:31:48.028Z,101742.78
2023-04-21T01:34:14.692Z,101746.25
2023-04-21T01:36:41.227Z,101743.72
2023-04-21T01:39:07.575Z,101739.47
2023-04-21T01:41:33.918Z,101741.19
2023-04-21T01:44:01.003Z,101740.28
2023-04-21T01:46:27.413Z,101737.63
2023-04-21T01:48:53.797Z,101739.28
2023-04-21T01:51:20.165Z,101738.53
2023-04-21T01:53:46.500Z,101738.53
2023-04-21T01:56:15.558Z,101734.19
2023-04-21T01:58:41.887Z,101732.41
2023-04-21T02:01:08.253Z,101733.22
2023-04-21T02:03:35.043Z,101733.19
2023-04-21T02:06:01.501Z,101740.22
2023-04-21T02:08:27.846Z,101727.22
2023-04-21T02:10:54.137Z,101734.94
2023-04-21T02:13:20.472Z,101728.03
2023-04-21T02:15:46.782Z,101727.22
2023-04-21T02:18:13.236Z,101721.13
2023-04-21T02:20:39.582Z,101721.94
2023-04-21T02:23:05.858Z,101719.41
2023-04-21T02:25:32.131Z,101726.25
2023-04-21T02:27:58.416Z,101716.84
2023-04-21T02:30:24.733Z,101711.72
2023-04-21T02:32:51.161Z,101711.72
2023-04-21T02:35:17.546Z,101710.78
2023-04-21T02:37:43.816Z,101710.72
2023-04-21T02:40:10.707Z,101706.44
2023-04-21T02:42:37.021Z,101708.97
2023-04-21T02:45:03.608Z,101707.22
2023-04-21T02:47:30.145Z,101712.38
2023-04-21T02:49:56.539Z,101708.03
2023-04-21T02:52:22.812Z,101706.31
2023-04-21T02:54:49.150Z,101702.94
2023-04-21T02:57:15.470Z,101713.22
2023-04-21T02:59:41.738Z,101714.09
2023-04-21T03:02:08.113Z,101711.47
2023-04-21T03:04:34.731Z,101708.84
2023-04-21T03:07:01.195Z,101708.84
2023-04-21T03:09:27.543Z,101701.94
2023-04-21T03:11:54.365Z,101703.78
2023-04-21T03:14:20.959Z,101698.50
2023-04-21T03:16:47.366Z,101695.97
2023-04-21T03:19:13.759Z,101706.47
2023-04-21T03:21:40.112Z,101696.13
2023-04-21T03:24:07.227Z,101701.31
2023-04-21T03:26:33.794Z,101697.91
2023-04-21T03:29:00.469Z,101702.94
2023-04-21T03:31:26.870Z,101694.38
2023-04-21T03:33:53.229Z,101694.25
2023-04-21T03:36:19.629Z,101690.81
2023-04-21T03:38:46.010Z,101689.94
2023-04-21T03:41:12.281Z,101702.75
2023-04-21T03:43:38.614Z,101694.13
2023-04-21T03:46:05.061Z,101693.31
2023-04-21T03:48:31.920Z,101692.47
2023-04-21T03:50:58.260Z,101695.81
2023-04-21T03:53:24.614Z,101690.63
2023-04-21T03:55:50.974Z,101694.91
2023-04-21T03:58:17.423Z,101688.09
2023-04-21T04:00:43.925Z,101696.84
2023-04-21T04:03:10.402Z,101701.91
2023-04-21T04:05:36.912Z,101692.47
2023-04-21T04:08:03.383Z,101695.97
2023-04-21T04:10:29.747Z,101687.28
2023-04-21T04:12:56.050Z,101695.00
2023-04-21T04:15:22.430Z,101686.38
2023-04-21T04:17:48.829Z,101679.44
2023-04-21T04:20:15.421Z,101683.84
2023-04-21T04:22:41.701Z,101675.13
2023-04-21T04:25:08.424Z,101678.63
2023-04-21T04:27:35.068Z,101681.22
2023-04-21T04:30:01.411Z,101678.69
2023-04-21T04:32:28.896Z,101680.50
2023-04-21T04:34:58.758Z,101676.28
2023-04-21T04:37:25.379Z,101681.53
2023-04-21T04:39:54.949Z,101683.28
2023-04-21T04:42:21.275Z,101677.13
2023-04-21T04:44:47.944Z,101684.19
2023-04-21T04:47:14.289Z,101683.44
2023-04-21T04:49:40.602Z,101686.88
2023-04-21T04:52:07.047Z,101679.22
2023-04-21T04:54:33.406Z,101681.09
2023-04-21T04:56:59.805Z,101681.97
2023-04-21T04:59:27.100Z,101680.44
2023-04-21T05:01:54.864Z,101676.28
2023-04-21T05:04:21.589Z,101675.56
2023-04-21T05:06:48.218Z,101677.47
2023-04-21T05:09:14.572Z,101680.09
2023-04-21T05:11:40.834Z,101682.75
2023-04-21T05:14:07.152Z,101679.41
2023-04-21T05:16:37.030Z,101677.84
2023-04-21T05:19:04.100Z,101676.28
2023-04-21T05:21:31.136Z,101681.63
2023-04-21T05:23:58.868Z,101680.91
2023-04-21T05:26:27.315Z,101677.59
2023-04-21T05:28:54.869Z,101677.78
2023-04-21T05:31:21.223Z,101681.44
2023-04-21T05:33:47.515Z,101673.75
2023-04-21T05:36:13.950Z,101674.72
2023-04-21T05:38:40.778Z,101658.31
2023-04-21T05:41:07.979Z,101662.75
2023-04-21T05:43:34.799Z,101662.84
2023-04-21T05:46:01.736Z,101668.91
2023-04-21T05:48:28.695Z,101659.50
2023-04-21T05:50:55.817Z,101669.09
2023-04-21T05:53:23.486Z,101655.34
2023-04-21T05:55:50.145Z,101659.72
2023-04-21T05:58:16.438Z,101658.91
2023-04-21T06:00:42.881Z,101654.59
2023-04-21T06:03:09.593Z,101652.91
2023-04-21T06:05:36.230Z,101654.69
2023-04-21T06:08:02.692Z,101646.91
2023-04-21T06:10:29.158Z,101650.47
2023-04-21T06:12:55.450Z,101646.97
2023-04-21T06:15:21.748Z,101651.41
2023-04-21T06:17:53.171Z,101651.44
2023-04-21T06:20:19.543Z,101643.63
2023-04-21T06:22:45.883Z,101635.84
2023-04-21T06:25:12.167Z,101640.22
2023-04-21T06:27:38.567Z,101641.19
2023-04-21T06:30:05.673Z,101637.69
2023-04-21T06:32:32.072Z,101636.00
2023-04-21T06:34:58.476Z,101635.13
2023-04-21T06:37:24.801Z,101641.22
2023-04-21T06:39:51.135Z,101636.91
2023-04-21T06:42:17.582Z,101634.34
2023-04-21T06:44:43.880Z,101633.47
2023-04-21T06:47:10.232Z,101630.84
2023-04-21T06:49:37.373Z,101629.16
2023-04-21T06:52:04.450Z,101617.88
2023-04-21T06:54:30.776Z,101617.00
2023-04-21T06:56:57.170Z,101626.53
2023-04-21T06:59:23.625Z,101620.50
2023-04-21T07:01:52.112Z,101616.16
2023-04-21T07:04:19.476Z,101617.88
2023-04-21T07:06:46.624Z,101619.63
2023-04-21T07:09:13.038Z,101611.81
2023-04-21T07:11:39.382Z,101618.75
2023-04-21T07:14:06.522Z,101612.63
2023-04-21T07:16:33.113Z,101608.28
2023-04-21T07:18:59.910Z,101613.44
2023-04-21T07:21:26.217Z,101616.81
2023-04-21T07:23:52.600Z,101608.13
2023-04-21T07:26:19.065Z,101615.03
2023-04-21T07:28:45.384Z,101605.50
2023-04-21T07:31:11.712Z,101604.63
2023-04-21T07:33:38.053Z,101607.13
2023-04-21T07:36:04.708Z,101604.50
2023-04-21T07:38:30.966Z,101609.63
2023-04-21T07:40:57.244Z,101600.13
2023-04-21T07:43:23.628Z,101607.84
2023-04-21T07:45:52.036Z,101607.81
2023-04-21T07:48:18.936Z,101600.00
2023-04-21T07:50:45.327Z,101595.63
2023-04-21T07:53:11.620Z,101595.56
2023-04-21T07:55:38.006Z,101593.78
2023-04-21T07:58:05.107Z,101591.06
2023-04-21T08:00:31.482Z,101591.78
2023-04-21T08:02:58.112Z,101589.16
2023-04-21T08:05:27.409Z,101583.72
2023-04-21T08:07:55.555Z,101585.28
2023-04-21T08:10:21.871Z,101579.03
2023-04-21T08:12:48.168Z,101579.09
2023-04-21T08:15:14.542Z,101580.78
2023-04-21T08:17:41.000Z,101570.06
2023-04-21T08:20:08.144Z,101572.44
2023-04-21T08:22:36.341Z,101574.88
2023-04-21T08:25:03.938Z,101574.22
2023-04-21T08:27:30.315Z,101575.13
2023-04-21T08:29:56.772Z,101571.31
2023-04-21T08:32:26.436Z,101553.75
2023-04-21T08:34:54.422Z,101559.41
2023-04-21T08:37:21.811Z,101555.13
2023-04-21T08:39:50.832Z,101551.59
2023-04-21T08:42:17.990Z,101554.81
2023-04-21T08:44:44.704Z,101559.75
2023-04-21T08:47:12.628Z,101552.84
2023-04-21T08:49:40.692Z,101557.94
2023-04-21T08:52:07.149Z,101553.53
2023-04-21T08:54:36.080Z,101547.69
2023-04-21T08:57:14.197Z,101536.34
2023-04-21T08:59:41.887Z,101551.06
2023-04-21T09:02:11.193Z,101546.47
2023-04-21T09:04:42.842Z,101548.41
2023-04-21T09:07:10.381Z,101543.72
2023-04-21T09:09:53.693Z,101550.25
2023-04-21T09:12:20.228Z,101555.25
2023-04-21T09:14:46.985Z,101547.44
2023-04-21T09:17:16.239Z,101543.59
2023-04-21T09:19:42.765Z,101544.75
2023-04-21T09:22:09.471Z,101540.19
2023-04-21T09:24:35.920Z,101536.53
2023-04-21T09:27:04.493Z,101543.03
2023-04-21T09:29:31.149Z,101541.25
2023-04-21T09:31:57.469Z,101544.66
2023-04-21T09:34:25.558Z,101541.03
2023-04-21T09:37:02.377Z,101540.66
2023-04-21T09:42:02.478Z,101578.13
2023-04-21T09:44:31.915Z,101530.16
2023-04-21T09:47:03.966Z,101528.91
2023-04-21T09:49:31.803Z,101524.53
2023-04-21T09:52:17.577Z,101520.78
2023-04-21T09:54:52.756Z,101515.19
2023-04-21T09:57:24.734Z,101518.75
2023-04-21T09:59:57.222Z,101510.09
2023-04-21T10:02:30.780Z,101511.09
2023-04-21T10:04:58.078Z,101504.28
2023-04-21T10:07:24.510Z,101500.69
2023-04-21T10:09:54.610Z,101500.91
2023-04-21T10:12:22.263Z,101494.13
2023-04-21T10:14:56.311Z,101486.78
2023-04-21T10:17:31.699Z,101490.75
2023-04-21T10:19:58.400Z,101484.78
2023-04-21T10:22:33.118Z,101483.38
2023-04-21T10:25:04.774Z,101489.28
2023-04-21T10:27:40.526Z,101486.13
2023-04-21T10:30:19.564Z,101473.53
2023-04-21T10:32:46.317Z,101477.78
2023-04-21T10:35:21.460Z,101478.75
2023-04-21T10:37:49.056Z,101471.59
2023-04-21T10:40:43.031Z,101472.88
2023-04-21T10:43:44.401Z,101458.91
2023-04-21T10:46:31.686Z,103011.72
2023-04-21T10:49:11.233Z,102842.25
2023-04-21T10:51:59.428Z,101712.41
2023-04-21T10:54:42.099Z,101455.50
2023-04-21T10:57:11.431Z,101451.53
2023-04-21T10:59:38.145Z,101455.50
2023-04-21T11:02:10.880Z,102587.19
2023-04-21T11:04:40.147Z,102980.69
2023-04-21T11:07:24.027Z,102971.28
2023-04-21T11:09:59.206Z,102861.31
2023-04-21T11:12:39.865Z,102737.28
2023-04-21T11:15:08.940Z,101457.69
2023-04-21T11:17:39.400Z,101446.00
2023-04-21T11:20:06.837Z,101447.47
2023-04-21T11:22:34.051Z,101443.22
2023-04-21T11:25:00.599Z,101443.34
2023-04-21T11:27:28.752Z,101431.81
2023-04-21T11:29:55.467Z,101426.31
2023-04-21T11:32:21.968Z,101426.13
2023-04-21T11:34:48.318Z,101421.91
2023-04-21T11:37:17.383Z,101417.53
2023-04-21T11:39:44.440Z,101419.06
2023-04-21T11:42:11.881Z,101414.84
2023-04-21T11:44:40.807Z,101405.50
2023-04-21T11:47:22.211Z,101411.03
2023-04-21T11:49:56.949Z,101400.28
2023-04-21T11:52:29.123Z,101393.44
2023-04-21T11:55:00.297Z,101392.94
2023-04-21T11:57:27.990Z,101389.22
2023-04-21T11:59:54.898Z,101392.44
2023-04-21T12:02:23.979Z,101387.31
2023-04-21T12:05:02.828Z,101381.09
2023-04-21T12:07:32.889Z,101383.22
2023-04-21T12:10:00.904Z,101369.94
2023-04-21T12:12:27.611Z,101370.50
2023-04-21T12:14:54.039Z,101373.84
2023-04-21T12:17:20.689Z,101359.09
2023-04-21T12:19:47.737Z,101375.03
2023-04-21T12:22:16.228Z,101371.69
2023-04-21T12:24:43.086Z,101369.66
2023-04-21T12:27:10.447Z,101373.03
2023-04-21T12:29:38.348Z,101372.38
2023-04-21T12:32:06.226Z,101363.72
2023-04-21T12:34:33.031Z,101363.44
2023-04-21T12:36:59.448Z,101366.09
2023-04-21T12:39:25.875Z,101350.59
2023-04-21T12:41:52.359Z,101348.88
2023-04-21T12:44:18.765Z,101344.66
2023-04-21T12:46:45.128Z,101350.75
2023-04-21T12:49:11.697Z,101351.47
2023-04-21T12:51:38.208Z,101355.41
2023-04-21T12:54:04.615Z,101340.16
2023-04-21T12:56:31.405Z,101340.53
2023-04-21T12:58:58.314Z,101333.56
2023-04-21T13:01:24.971Z,101330.25
2023-04-21T13:03:51.772Z,101325.09
2023-04-21T13:06:18.631Z,101321.94
2023-04-21T13:08:44.995Z,101317.28
2023-04-21T13:11:11.362Z,101320.63
2023-04-21T13:13:38.808Z,101322.91
2023-04-21T13:16:05.932Z,101311.41
2023-04-21T13:18:34.794Z,101302.44
2023-04-21T13:21:01.568Z,101302.91
2023-04-21T13:23:28.443Z,101292.91
2023-04-21T13:25:54.994Z,101291.41
2023-04-21T13:28:22.220Z,101293.59
2023-04-21T13:30:49.496Z,101298.22
2023-04-21T13:33:16.427Z,101299.53
2023-04-21T13:35:42.993Z,101271.16
2023-04-21T13:38:09.373Z,101288.03
2023-04-21T13:40:35.985Z,101280.41
2023-04-21T13:43:02.608Z,101270.03
2023-04-21T13:45:29.134Z,101266.22
2023-04-21T13:47:55.722Z,101270.34
2023-04-21T13:50:23.111Z,101268.44
2023-04-21T13:52:49.853Z,101254.13
2023-04-21T13:55:16.248Z,101256.22
2023-04-21T13:57:42.565Z,101244.06
2023-04-21T14:00:10.786Z,101252.84
2023-04-21T14:02:39.884Z,101252.78
2023-04-21T14:05:07.060Z,101247.19
2023-04-21T14:07:34.858Z,101232.16
2023-04-21T14:10:01.494Z,101231.09
2023-04-21T14:12:28.021Z,101223.38
2023-04-21T14:14:54.325Z,101222.06
2023-04-21T14:17:21.057Z,101223.59
2023-04-21T14:19:47.608Z,101218.41
2023-04-21T14:22:13.964Z,101222.22
2023-04-21T14:24:40.330Z,101210.31
2023-04-21T14:27:06.685Z,101210.81
2023-04-21T14:29:33.279Z,101211.97
2023-04-21T14:31:59.860Z,101201.84
2023-04-21T14:34:26.459Z,101194.66
2023-04-21T14:36:53.541Z,101197.19
2023-04-21T14:39:20.097Z,101187.75
2023-04-21T14:41:46.490Z,101187.28
2023-04-21T14:44:12.874Z,101193.19
2023-04-21T14:46:39.393Z,101194.31
2023-04-21T14:49:06.158Z,101185.53
2023-04-21T14:51:32.604Z,101180.59
2023-04-21T14:53:58.996Z,101182.44
2023-04-21T14:56:25.664Z,101176.34
2023-04-21T14:59:36.991Z,101180.22
2023-04-21T15:02:04.509Z,101175.97
2023-04-21T15:04:31.783Z,101167.59
2023-04-21T15:06:58.301Z,101159.16
2023-04-21T15:09:25.095Z,101161.25
2023-04-21T15:11:51.444Z,101155.38
2023-04-21T15:14:17.764Z,101149.44
2023-04-21T15:16:44.206Z,101143.59
2023-04-21T15:19:10.980Z,101144.06
2023-04-21T15:21:37.482Z,101139.94
2023-04-21T15:24:03.880Z,101132.50
2023-04-21T15:26:30.510Z,101129.38
2023-04-21T15:28:57.596Z,101130.03
2023-04-21T15:31:24.308Z,101118.44
2023-04-21T15:33:50.741Z,101122.13
2023-04-21T15:36:17.013Z,101118.34
2023-04-21T15:38:44.917Z,101115.66
2023-04-21T15:41:11.327Z,101122.09
2023-04-21T15:43:37.899Z,101114.06
2023-04-21T15:46:12.763Z,101116.19
2023-04-21T15:48:43.826Z,101119.09
2023-04-21T15:51:10.919Z,101116.28
2023-04-21T15:53:37.682Z,101112.75
2023-04-21T15:56:04.667Z,101109.44
2023-04-21T15:58:31.066Z,101104.22
2023-04-21T16:00:57.497Z,101095.72
2023-04-21T16:03:24.064Z,101102.69
2023-04-21T16:05:51.010Z,101092.22
2023-04-21T16:08:17.589Z,101100.16
2023-04-21T16:10:46.669Z,101094.19
2023-04-21T16:13:13.231Z,101091.75
2023-04-21T16:15:40.522Z,101097.22
2023-04-21T16:18:08.303Z,101092.34
2023-04-21T16:20:35.943Z,101083.50
2023-04-21T16:23:05.032Z,101086.97
2023-04-21T16:25:34.550Z,101079.28
2023-04-21T16:28:00.985Z,101080.38
2023-04-21T16:30:27.313Z,101082.19
2023-04-21T16:32:55.544Z,101081.00
2023-04-21T16:35:22.068Z,101069.03
2023-04-21T16:37:48.436Z,101067.34
2023-04-21T16:40:14.856Z,101070.81
2023-04-21T16:42:41.316Z,101068.44
2023-04-21T16:45:08.248Z,101060.38
2023-04-21T16:47:40.393Z,101060.66
2023-04-21T16:50:08.874Z,101064.28
2023-04-21T16:52:35.878Z,101057.41
2023-04-21T16:55:02.355Z,101058.16
2023-04-21T16:57:30.286Z,101060.97
2023-04-21T16:59:58.125Z,101061.88
2023-04-21T17:02:24.800Z,101060.28
2023-04-21T17:04:51.408Z,101060.34
2023-04-21T17:07:18.107Z,101051.66
2023-04-21T17:09:44.895Z,101055.81
2023-04-21T17:12:11.341Z,101056.47
2023-04-21T17:14:37.918Z,101058.28
2023-04-21T17:17:04.739Z,101051.72
2023-04-21T17:19:31.342Z,101057.28
2023-04-21T17:21:57.653Z,101056.88
2023-04-21T17:24:24.164Z,101053.47
2023-04-21T17:26:50.628Z,101058.34
2023-04-21T17:29:17.165Z,101050.91
2023-04-21T17:31:43.529Z,101057.88
2023-04-21T17:34:09.886Z,101057.09
2023-04-21T17:36:39.639Z,101049.59
2023-04-21T17:39:06.237Z,101049.03
2023-04-21T17:41:32.708Z,101055.38
2023-04-21T17:44:00.043Z,101046.59
2023-04-21T17:46:26.946Z,101058.09
2023-04-21T17:48:53.580Z,101051.06
2023-04-21T17:51:19.921Z,101054.91
2023-04-21T17:53:48.865Z,101052.56
2023-04-21T17:56:15.335Z,101050.22
2023-04-21T17:58:42.301Z,101057.44
2023-04-21T18:01:08.806Z,101056.84
2023-04-21T18:03:41.146Z,101059.66
2023-04-21T18:06:09.813Z,101059.91
2023-04-21T18:08:37.027Z,101057.53
2023-04-21T18:11:03.402Z,101062.09
2023-04-21T18:13:29.886Z,101049.91
2023-04-21T18:15:58.025Z,101055.47
2023-04-21T18:18:25.465Z,101054.06
2023-04-21T18:20:51.752Z,101061.31
2023-04-21T18:23:18.221Z,101062.59
2023-04-21T18:25:44.530Z,101065.44
2023-04-21T18:28:12.302Z,101063.66
2023-04-21T18:30:39.444Z,101061.25
2023-04-21T18:33:06.185Z,101066.69
2023-04-21T18:35:33.776Z,101060.94
2023-04-21T18:38:00.567Z,101060.13
2023-04-21T18:40:27.098Z,101070.69
2023-04-21T18:42:53.697Z,101073.50
2023-04-21T18:45:20.103Z,101066.63
2023-04-21T18:47:46.773Z,101065.72
2023-04-21T18:50:13.166Z,101064.16
2023-04-21T18:52:39.640Z,101059.78
2023-04-21T18:55:06.205Z,101065.88
2023-04-21T18:57:32.500Z,101062.53
2023-04-21T18:59:59.998Z,101063.25
2023-04-21T19:02:26.483Z,101066.72
2023-04-21T19:04:53.140Z,101065.09
2023-04-21T19:07:19.555Z,101067.84
2023-04-21T19:09:45.968Z,101061.06
2023-04-21T19:12:12.371Z,101063.81
2023-04-21T19:14:46.496Z,101066.53
2023-04-21T19:17:13.674Z,101063.06
2023-04-21T19:19:40.625Z,101060.56
2023-04-21T19:22:06.941Z,101066.06
2023-04-21T19:24:33.311Z,101062.59
2023-04-21T19:27:01.662Z,101066.19
2023-04-21T19:29:28.255Z,101061.94
2023-04-21T19:31:54.791Z,101061.94
2023-04-21T19:34:21.391Z,101073.31
2023-04-21T19:36:49.339Z,101069.91
2023-04-21T19:39:15.936Z,101065.72
2023-04-21T19:41:42.882Z,101072.00
2023-04-21T19:44:09.358Z,101065.03
2023-04-21T19:46:35.827Z,101064.31
2023-04-21T19:49:02.229Z,101060.84
2023-04-21T19:51:28.567Z,101063.56
2023-04-21T19:54:10.097Z,101058.53
2023-04-21T19:56:37.896Z,101058.59
2023-04-21T19:59:07.398Z,101058.69
2023-04-21T20:01:34.172Z,101064.03
2023-04-21T20:04:00.989Z,101062.34
2023-04-21T20:06:28.680Z,101057.19
2023-04-21T20:08:55.519Z,101051.22
2023-04-21T20:11:21.938Z,101055.69
2023-04-21T20:13:48.499Z,101055.00
2023-04-21T20:16:15.949Z,101059.47
2023-04-21T20:18:42.659Z,101054.31
2023-04-21T20:21:08.921Z,101058.69
2023-04-21T20:23:35.279Z,101055.25
2023-04-21T20:26:01.674Z,101052.75
2023-04-21T20:28:28.059Z,101049.47
2023-04-21T20:30:56.680Z,101051.22
2023-04-21T20:33:23.061Z,101051.38
2023-04-21T20:35:49.816Z,101053.13
2023-04-21T20:38:16.283Z,101058.41
2023-04-21T20:40:42.888Z,101055.06
2023-04-21T20:43:10.078Z,101050.75
2023-04-21T20:45:36.433Z,101054.31
2023-04-21T20:48:03.841Z,101051.00
2023-04-21T20:50:30.255Z,101064.97
2023-04-21T20:52:56.672Z,101062.31
2023-04-21T20:55:22.998Z,101063.28
2023-04-21T20:57:49.356Z,101056.44
2023-04-21T21:00:15.852Z,101060.84
2023-04-21T21:02:42.350Z,101057.50
2023-04-21T21:05:08.952Z,101058.38
2023-04-21T21:07:35.444Z,101053.25
2023-04-21T21:10:04.000Z,101055.91
2023-04-21T21:12:30.307Z,101057.66
2023-04-21T21:14:56.635Z,101050.75
2023-04-21T21:17:23.081Z,101049.13
2023-04-21T21:19:49.547Z,101045.63
2023-04-21T21:22:15.878Z,101053.50
2023-04-21T21:24:42.849Z,101041.38
2023-04-21T21:27:09.163Z,101050.09
2023-04-21T21:29:35.596Z,101047.50
2023-04-21T21:32:02.006Z,101047.56
2023-04-21T21:34:28.469Z,101052.84
2023-04-21T21:36:54.834Z,101050.22
2023-04-21T21:39:21.205Z,101052.88
2023-04-21T21:41:47.480Z,101055.56
2023-04-21T21:44:13.778Z,101051.31
2023-04-21T21:46:40.357Z,101052.13
2023-04-21T21:49:06.740Z,101057.34
2023-04-21T21:51:33.097Z,101053.00
2023-04-21T21:53:59.424Z,101047.88
2023-04-21T21:56:25.909Z,101053.16
2023-04-21T21:58:52.838Z,101056.69
2023-04-21T22:01:19.221Z,101045.47
2023-04-21T22:03:47.011Z,101048.00
2023-04-21T22:06:16.852Z,101046.28
2023-04-21T22:08:43.559Z,101046.28
2023-04-21T22:11:09.880Z,101051.47
2023-04-21T22:13:36.208Z,101045.47
2023-04-21T22:16:03.024Z,101038.56
2023-04-21T22:18:29.908Z,101043.81
2023-04-21T22:20:56.361Z,101042.13
2023-04-21T22:23:22.629Z,101036.03
2023-04-21T22:25:49.037Z,101036.91
2023-04-21T22:28:15.504Z,101025.59
2023-04-21T22:30:41.900Z,101033.41
2023-04-21T22:33:08.354Z,101029.09
2023-04-21T22:35:34.701Z,101029.03
2023-04-21T22:38:01.023Z,101025.59
2023-04-21T22:40:27.686Z,101027.38
2023-04-21T22:42:54.500Z,101019.56
2023-04-21T22:45:21.321Z,101028.22
2023-04-21T22:47:49.048Z,101030.91
2023-04-21T22:50:15.864Z,101030.88
2023-04-21T22:52:42.330Z,101032.59
2023-04-21T22:55:09.198Z,101020.44
2023-04-21T22:57:37.329Z,101020.47
2023-04-21T23:00:06.249Z,101019.59
2023-04-21T23:02:32.976Z,101016.13
2023-04-21T23:04:59.493Z,101024.00
2023-04-21T23:07:25.778Z,101019.69
2023-04-21T23:09:52.089Z,101011.91
2023-04-21T23:12:18.465Z,101006.69
2023-04-21T23:14:44.797Z,101010.97
2023-04-21T23:17:11.072Z,101010.09
2023-04-21T23:19:37.542Z,101006.66
2023-04-21T23:22:04.092Z,101001.41
2023-04-21T23:24:30.692Z,100991.94
2023-04-21T23:26:56.987Z,100998.00
2023-04-21T23:29:23.316Z,100992.78
2023-04-21T23:31:49.900Z,100991.91
2023-04-21T23:34:16.253Z,100987.56
2023-04-21T23:36:42.637Z,100991.91
2023-04-21T23:39:09.754Z,100985.78
2023-04-21T23:41:36.147Z,100984.88
2023-04-21T23:44:02.523Z,100981.38
2023-04-21T23:46:28.917Z,100984.94
2023-04-21T23:48:55.259Z,100981.41
2023-04-21T23:51:21.662Z,100974.41
2023-04-21T23:53:48.084Z,100972.69
2023-04-21T23:56:14.593Z,100981.38
2023-04-21T23:58:40.993Z,100969.22
